createdAt,value
2023-05-11T00:01:43.077Z,5.90
2023-05-11T00:04:12.587Z,5.88
2023-05-11T00:06:43.694Z,6.13
2023-05-11T00:09:12.992Z,6.05
2023-05-11T00:11:42.885Z,5.50
2023-05-11T00:14:12.232Z,4.90
2023-05-11T00:16:42.064Z,5.30
2023-05-11T00:19:11.304Z,5.30
2023-05-11T00:21:41.676Z,5.45
2023-05-11T00:24:12.621Z,4.93
2023-05-11T00:26:43.053Z,4.90
2023-05-11T00:29:12.343Z,4.63
2023-05-11T00:31:42.094Z,5.22
2023-05-11T00:34:11.370Z,5.65
2023-05-11T00:36:42.789Z,5.18
2023-05-11T00:39:14.025Z,5.88
2023-05-11T00:41:43.643Z,5.03
2023-05-11T00:44:13.114Z,5.70
2023-05-11T00:46:43.190Z,5.25
2023-05-11T00:49:12.967Z,4.93
2023-05-11T00:51:43.962Z,5.88
2023-05-11T00:54:15.691Z,5.40
2023-05-11T00:56:45.652Z,4.80
2023-05-11T00:59:14.943Z,5.28
2023-05-11T01:01:45.509Z,4.97
2023-05-11T01:04:15.453Z,4.15
2023-05-11T01:06:53.192Z,4.40
2023-05-11T01:09:37.851Z,4.43
2023-05-11T01:12:15.991Z,4.63
2023-05-11T01:14:51.344Z,4.32
2023-05-11T01:17:32.335Z,4.22
2023-05-11T01:20:08.851Z,4.25
2023-05-11T01:22:50.789Z,4.28
2023-05-11T01:25:34.492Z,4.57
2023-05-11T01:28:27.896Z,4.50
2023-05-11T01:31:01.645Z,4.65
2023-05-11T01:33:35.385Z,4.60
2023-05-11T01:36:07.803Z,4.72
2023-05-11T01:38:41.793Z,4.95
2023-05-11T01:41:16.192Z,5.25
2023-05-11T01:43:48.997Z,4.10
2023-05-11T01:46:21.099Z,4.95
2023-05-11T01:48:54.472Z,4.57
2023-05-11T01:51:25.439Z,4.35
2023-05-11T01:53:56.531Z,4.35
2023-05-11T01:56:28.662Z,4.40
2023-05-11T01:58:59.737Z,4.38
2023-05-11T02:01:32.576Z,4.07
2023-05-11T02:04:05.223Z,4.15
2023-05-11T02:06:36.103Z,4.18
2023-05-11T02:09:07.230Z,5.25
2023-05-11T02:11:38.576Z,5.38
2023-05-11T02:14:09.383Z,4.47
2023-05-11T02:16:41.258Z,4.13
2023-05-11T02:19:12.058Z,4.22
2023-05-11T02:21:44.059Z,3.80
2023-05-11T02:24:14.103Z,4.05
2023-05-11T02:26:43.444Z,5.57
2023-05-11T02:29:13.071Z,3.88
2023-05-11T02:31:47.969Z,5.03
2023-05-11T02:34:28.308Z,3.83
2023-05-11T02:37:02.692Z,4.97
2023-05-11T02:39:36.749Z,4.32
2023-05-11T02:42:14.394Z,3.97
2023-05-11T02:44:52.291Z,3.80
2023-05-11T02:47:24.240Z,3.72
2023-05-11T02:49:56.966Z,4.05
2023-05-11T02:52:28.736Z,4.32
2023-05-11T02:55:00.659Z,4.38
2023-05-11T02:57:29.996Z,4.95
2023-05-11T03:00:00.574Z,4.72
2023-05-11T03:02:31.450Z,4.40
2023-05-11T03:05:01.806Z,4.63
2023-05-11T03:07:31.068Z,4.55
2023-05-11T03:10:01.346Z,5.13
2023-05-11T03:12:33.542Z,3.78
2023-05-11T03:15:05.411Z,4.45
2023-05-11T03:17:37.403Z,4.43
2023-05-11T03:20:10.313Z,4.40
2023-05-11T03:22:40.100Z,3.72
2023-05-11T03:25:11.550Z,5.03
2023-05-11T03:27:42.764Z,4.15
2023-05-11T03:30:15.718Z,4.28
2023-05-11T03:32:46.740Z,3.97
2023-05-11T03:35:16.624Z,4.05
2023-05-11T03:37:47.467Z,4.63
2023-05-11T03:42:48.481Z,3.75
2023-05-11T03:45:21.327Z,3.65
2023-05-11T03:47:53.806Z,7.20
2023-05-11T03:50:23.821Z,3.90
2023-05-11T03:52:53.792Z,3.65
2023-05-11T03:55:24.471Z,5.25
2023-05-11T03:57:54.512Z,4.18
2023-05-11T04:00:24.698Z,6.85
2023-05-11T04:02:56.835Z,4.63
2023-05-11T04:05:26.530Z,3.83
2023-05-11T04:07:55.771Z,4.63
2023-05-11T04:10:26.696Z,5.80
2023-05-11T04:12:56.342Z,5.72
2023-05-11T04:15:26.501Z,5.03
2023-05-11T04:17:57.979Z,5.70
2023-05-11T04:20:27.685Z,5.22
2023-05-11T04:22:56.977Z,5.78
2023-05-11T04:25:27.742Z,4.68
2023-05-11T04:27:57.128Z,4.32
2023-05-11T04:30:27.188Z,4.32
2023-05-11T04:32:58.329Z,4.25
2023-05-11T04:35:29.323Z,5.20
2023-05-11T04:37:58.699Z,4.53
2023-05-11T04:40:28.463Z,3.65
2023-05-11T04:42:58.067Z,3.70
2023-05-11T04:45:27.672Z,3.85
2023-05-11T04:47:58.652Z,3.80
2023-05-11T04:50:28.479Z,3.72
2023-05-11T04:52:58.006Z,4.00
2023-05-11T04:55:27.764Z,3.45
2023-05-11T04:57:57.007Z,3.47
2023-05-11T05:00:26.968Z,4.28
2023-05-11T05:02:57.751Z,4.47
2023-05-11T05:05:27.735Z,3.25
2023-05-11T05:07:57.287Z,4.13
2023-05-11T05:10:26.915Z,4.10
2023-05-11T05:12:56.270Z,4.55
2023-05-11T05:15:26.449Z,4.35
2023-05-11T05:17:55.740Z,3.85
2023-05-11T05:20:26.814Z,3.55
2023-05-11T05:22:56.527Z,3.30
2023-05-11T05:25:26.214Z,4.75
2023-05-11T05:27:55.711Z,4.05
2023-05-11T05:30:25.500Z,3.53
2023-05-11T05:32:55.434Z,3.83
2023-05-11T05:35:26.889Z,3.50
2023-05-11T05:37:56.433Z,3.38
2023-05-11T05:40:26.312Z,3.60
2023-05-11T05:42:56.209Z,3.70
2023-05-11T05:45:26.272Z,3.42
2023-05-11T05:47:55.843Z,3.90
2023-05-11T05:50:26.877Z,3.88
2023-05-11T05:52:56.267Z,3.70
2023-05-11T05:55:26.116Z,3.63
2023-05-11T05:57:55.331Z,4.15
2023-05-11T06:00:25.054Z,4.93
2023-05-11T06:02:54.653Z,3.65
2023-05-11T06:05:26.194Z,3.60
2023-05-11T06:08:09.319Z,3.40
2023-05-11T06:10:41.143Z,3.47
2023-05-11T06:13:10.775Z,3.67
2023-05-11T06:15:43.156Z,3.35
2023-05-11T06:18:13.155Z,3.30
2023-05-11T06:20:44.292Z,3.58
2023-05-11T06:23:13.765Z,4.45
2023-05-11T06:25:43.375Z,4.20
2023-05-11T06:28:12.658Z,4.10
2023-05-11T06:30:42.296Z,3.53
2023-05-11T06:33:11.563Z,3.47
2023-05-11T06:35:41.336Z,3.85
2023-05-11T06:38:12.163Z,3.78
2023-05-11T06:40:41.809Z,4.07
2023-05-11T06:43:11.029Z,3.78
2023-05-11T06:45:42.078Z,3.60
2023-05-11T06:48:11.364Z,3.17
2023-05-11T06:50:41.057Z,3.22
2023-05-11T06:53:11.807Z,3.40
2023-05-11T06:55:41.763Z,3.33
2023-05-11T06:58:11.242Z,3.35
2023-05-11T07:00:41.309Z,2.87
2023-05-11T07:03:10.677Z,4.05
2023-05-11T07:05:40.609Z,3.17
2023-05-11T07:08:11.285Z,2.80
2023-05-11T07:10:42.102Z,2.90
2023-05-11T07:13:11.424Z,2.70
2023-05-11T07:15:41.170Z,2.75
2023-05-11T07:18:10.641Z,2.85
2023-05-11T07:20:41.137Z,3.20
2023-05-11T07:23:11.964Z,2.97
2023-05-11T07:25:41.551Z,3.25
2023-05-11T07:28:10.995Z,3.53
2023-05-11T07:30:40.716Z,3.50
2023-05-11T07:33:10.290Z,2.47
2023-05-11T07:35:40.096Z,2.63
2023-05-11T07:38:12.335Z,2.28
2023-05-11T07:40:42.043Z,2.80
2023-05-11T07:43:11.465Z,2.45
2023-05-11T07:45:41.745Z,2.17
2023-05-11T07:48:11.017Z,2.40
2023-05-11T07:50:41.452Z,2.90
2023-05-11T07:53:12.289Z,3.30
2023-05-11T07:55:41.966Z,2.95
2023-05-11T07:58:11.236Z,2.08
2023-05-11T08:00:40.874Z,2.63
2023-05-11T08:03:10.152Z,2.15
2023-05-11T08:05:39.789Z,1.80
2023-05-11T08:08:09.117Z,2.03
2023-05-11T08:10:40.200Z,2.15
2023-05-11T08:15:38.823Z,2.40
2023-05-11T08:18:08.718Z,1.90
2023-05-11T08:23:08.616Z,2.33
2023-05-11T08:25:39.897Z,1.70
2023-05-11T08:28:09.301Z,1.92
2023-05-11T08:30:38.870Z,2.17
2023-05-11T08:33:25.895Z,1.50
2023-05-11T08:35:58.836Z,1.50
2023-05-11T08:38:28.132Z,1.88
2023-05-11T08:40:59.295Z,3.25
2023-05-11T08:43:29.420Z,2.22
2023-05-11T08:46:05.000Z,2.20
2023-05-11T08:48:34.984Z,1.55
2023-05-11T08:53:34.256Z,2.67
2023-05-11T08:56:08.776Z,1.90
2023-05-11T08:58:38.883Z,1.65
2023-05-11T09:03:38.616Z,2.58
2023-05-11T09:06:11.257Z,1.50
2023-05-11T09:08:41.275Z,1.90
2023-05-11T09:11:12.898Z,1.65
2023-05-11T09:13:42.276Z,1.80
2023-05-11T09:16:24.392Z,1.83
2023-05-11T09:19:03.942Z,1.65
2023-05-11T09:21:34.606Z,1.80
2023-05-11T09:24:04.941Z,1.92
2023-05-11T09:26:36.123Z,1.70
2023-05-11T09:29:05.647Z,1.75
2023-05-11T09:31:42.286Z,1.65
2023-05-11T09:34:14.107Z,1.95
2023-05-11T09:36:44.006Z,1.27
2023-05-11T09:39:16.186Z,1.20
2023-05-11T09:41:47.925Z,1.48
2023-05-11T09:44:17.989Z,1.67
2023-05-11T09:46:48.041Z,1.70
2023-05-11T09:49:17.304Z,2.15
2023-05-11T09:51:47.059Z,1.67
2023-05-11T09:54:20.456Z,1.90
2023-05-11T09:56:54.447Z,2.25
2023-05-11T09:59:39.787Z,2.13
2023-05-11T10:02:20.294Z,1.55
2023-05-11T10:04:49.981Z,2.00
2023-05-11T10:07:30.028Z,1.52
2023-05-11T10:10:01.852Z,1.83
2023-05-11T10:12:34.264Z,1.98
2023-05-11T10:15:06.028Z,1.48
2023-05-11T10:17:36.114Z,1.20
2023-05-11T10:20:07.069Z,1.43
2023-05-11T10:22:37.359Z,1.50
2023-05-11T10:25:07.578Z,2.47
2023-05-11T10:27:39.448Z,1.42
2023-05-11T10:30:12.073Z,1.88
2023-05-11T10:32:42.717Z,1.67
2023-05-11T10:35:12.404Z,1.63
2023-05-11T10:37:43.810Z,1.98
2023-05-11T10:40:13.476Z,1.45
2023-05-11T10:43:12.038Z,1.60
2023-05-11T10:45:53.382Z,1.70
2023-05-11T10:49:00.325Z,1.77
2023-05-11T10:51:54.812Z,1.40
2023-05-11T10:54:35.665Z,1.40
2023-05-11T10:57:22.553Z,1.65
2023-05-11T11:00:43.860Z,1.95
2023-05-11T11:03:14.504Z,1.65
2023-05-11T11:05:45.534Z,1.90
2023-05-11T11:08:15.081Z,1.55
2023-05-11T11:10:46.619Z,2.88
2023-05-11T11:13:17.165Z,1.58
2023-05-11T11:16:16.155Z,1.52
2023-05-11T11:18:45.804Z,2.03
2023-05-11T11:21:16.264Z,2.38
2023-05-11T11:23:49.397Z,1.65
2023-05-11T11:26:40.711Z,1.52
2023-05-11T11:29:11.841Z,1.70
2023-05-11T11:31:43.811Z,1.52
2023-05-11T11:34:36.717Z,1.75
2023-05-11T11:37:08.927Z,1.70
2023-05-11T11:40:13.954Z,1.38
2023-05-11T11:42:45.246Z,1.35
2023-05-11T11:45:34.495Z,1.20
2023-05-11T11:48:16.678Z,2.00
2023-05-11T11:50:48.392Z,1.40
2023-05-11T11:54:13.606Z,1.58
2023-05-11T11:56:46.851Z,1.85
2023-05-11T11:59:17.510Z,1.48
2023-05-11T12:04:41.060Z,1.20
2023-05-11T12:07:11.688Z,2.20
2023-05-11T12:09:42.642Z,1.60
2023-05-11T12:12:13.060Z,1.48
2023-05-11T12:14:49.263Z,1.30
2023-05-11T12:17:26.241Z,1.30
2023-05-11T12:20:12.735Z,1.70
2023-05-11T12:22:42.695Z,1.33
2023-05-11T12:25:14.937Z,1.65
2023-05-11T12:27:52.574Z,1.63
2023-05-11T12:30:23.722Z,1.77
2023-05-11T12:35:28.959Z,1.75
2023-05-11T12:37:59.522Z,1.45
2023-05-11T12:40:29.421Z,1.75
2023-05-11T12:43:00.763Z,1.83
2023-05-11T12:45:30.821Z,1.23
2023-05-11T12:48:00.480Z,1.83
2023-05-11T12:50:31.850Z,1.60
2023-05-11T12:53:15.388Z,3.08
2023-05-11T12:55:45.497Z,1.17
2023-05-11T12:58:16.841Z,2.15
2023-05-11T13:00:54.679Z,1.67
2023-05-11T13:03:24.547Z,1.80
2023-05-11T13:11:20.759Z,1.13
2023-05-11T13:13:50.120Z,1.20
2023-05-11T13:16:27.545Z,1.70
2023-05-11T13:19:00.772Z,1.20
2023-05-11T13:21:33.764Z,1.20
2023-05-11T13:24:04.156Z,1.38
2023-05-11T13:26:34.399Z,2.17
2023-05-11T13:29:10.680Z,1.52
2023-05-11T13:31:47.351Z,1.45
2023-05-11T13:34:16.842Z,1.73
2023-05-11T13:36:48.668Z,1.58
2023-05-11T13:39:18.070Z,1.63
2023-05-11T13:41:48.561Z,1.75
2023-05-11T13:44:17.953Z,1.38
2023-05-11T13:46:47.946Z,1.40
2023-05-11T13:49:17.250Z,1.35
2023-05-11T13:51:48.307Z,1.70
2023-05-11T13:54:17.668Z,1.58
2023-05-11T13:56:47.605Z,1.60
2023-05-11T13:59:16.868Z,2.28
2023-05-11T14:01:46.800Z,1.42
2023-05-11T14:04:16.253Z,1.45
2023-05-11T14:06:47.619Z,1.60
2023-05-11T14:09:17.094Z,1.30
2023-05-11T14:11:46.897Z,1.23
2023-05-11T14:14:16.328Z,1.48
2023-05-11T14:16:46.333Z,1.48
2023-05-11T14:19:15.688Z,1.47
2023-05-11T14:24:16.165Z,1.30
2023-05-11T14:26:45.845Z,2.40
2023-05-11T14:29:15.108Z,1.50
2023-05-11T14:31:46.686Z,1.20
2023-05-11T14:36:45.513Z,1.30
2023-05-11T14:39:16.361Z,1.67
2023-05-11T14:41:46.085Z,1.40
2023-05-11T14:44:15.378Z,1.67
2023-05-11T14:46:45.546Z,1.42
2023-05-11T14:49:15.100Z,1.40
2023-05-11T14:51:44.744Z,1.27
2023-05-11T14:54:14.000Z,1.70
2023-05-11T14:56:46.520Z,1.30
2023-05-11T14:59:15.802Z,1.42
2023-05-11T15:01:45.968Z,1.52
2023-05-11T15:04:18.031Z,1.63
2023-05-11T15:06:47.713Z,1.10
2023-05-11T15:09:17.165Z,1.40
2023-05-11T15:11:48.244Z,1.48
2023-05-11T15:14:18.530Z,1.60
2023-05-11T15:16:48.941Z,1.40
2023-05-11T15:19:18.362Z,1.55
2023-05-11T15:21:48.205Z,1.63
2023-05-11T15:24:17.650Z,1.80
2023-05-11T15:26:48.775Z,1.27
2023-05-11T15:29:18.150Z,1.75
2023-05-11T15:31:48.238Z,1.67
2023-05-11T15:34:17.677Z,1.73
2023-05-11T15:36:49.132Z,1.88
2023-05-11T15:39:19.018Z,1.42
2023-05-11T15:41:50.380Z,1.30
2023-05-11T15:44:19.655Z,1.70
2023-05-11T15:46:49.864Z,1.58
2023-05-11T15:49:19.531Z,1.55
2023-05-11T15:51:49.469Z,1.70
2023-05-11T15:54:19.008Z,1.52
2023-05-11T15:56:50.430Z,1.42
2023-05-11T15:59:19.660Z,1.55
2023-05-11T16:01:49.764Z,1.35
2023-05-11T16:04:19.081Z,1.50
2023-05-11T16:06:48.680Z,1.48
2023-05-11T16:09:18.693Z,2.55
2023-05-11T16:11:50.679Z,1.80
2023-05-11T16:14:20.290Z,1.60
2023-05-11T16:16:50.102Z,1.50
2023-05-11T16:19:19.666Z,1.63
2023-05-11T16:21:49.432Z,1.63
2023-05-11T16:24:18.922Z,1.70
2023-05-11T16:26:50.015Z,1.45
2023-05-11T16:29:19.892Z,1.73
2023-05-11T16:31:49.873Z,1.90
2023-05-11T16:34:19.570Z,2.08
2023-05-11T16:39:19.250Z,1.55
2023-05-11T16:41:50.362Z,1.90
2023-05-11T16:44:19.749Z,1.80
2023-05-11T16:46:49.960Z,2.65
2023-05-11T16:49:19.247Z,1.80
2023-05-11T16:51:49.028Z,1.88
2023-05-11T16:54:18.333Z,1.85
2023-05-11T16:56:47.966Z,1.23
2023-05-11T16:59:18.844Z,1.48
2023-05-11T17:01:49.799Z,2.65
2023-05-11T17:04:19.527Z,2.00
2023-05-11T17:06:49.200Z,1.60
2023-05-11T17:09:18.846Z,1.70
2023-05-11T17:11:48.436Z,1.42
2023-05-11T17:14:19.164Z,1.85
2023-05-11T17:16:48.811Z,1.92
2023-05-11T17:19:18.594Z,1.70
2023-05-11T17:21:48.312Z,1.88
2023-05-11T17:24:17.873Z,1.63
2023-05-11T17:26:48.737Z,1.67
2023-05-11T17:31:52.042Z,1.88
2023-05-11T17:34:23.854Z,1.73
2023-05-11T17:36:57.129Z,1.60
2023-05-11T17:39:26.693Z,1.88
2023-05-11T17:41:56.520Z,1.95
2023-05-11T17:44:27.408Z,2.03
2023-05-11T17:46:57.310Z,2.00
2023-05-11T17:49:26.567Z,2.33
2023-05-11T17:51:56.180Z,2.10
2023-05-11T17:54:25.378Z,2.42
2023-05-11T17:56:55.027Z,1.80
2023-05-11T17:59:24.708Z,2.63
2023-05-11T18:01:56.248Z,2.92
2023-05-11T18:04:25.632Z,4.43
2023-05-11T18:06:55.380Z,5.30
2023-05-11T18:09:24.589Z,5.05
2023-05-11T18:11:54.388Z,4.27
2023-05-11T18:14:23.780Z,3.63
2023-05-11T18:16:54.265Z,5.03
2023-05-11T18:19:24.957Z,4.23
2023-05-11T18:21:54.628Z,5.03
2023-05-11T18:24:23.878Z,4.63
2023-05-11T18:26:54.058Z,5.22
2023-05-11T18:29:24.120Z,5.03
2023-05-11T18:31:53.962Z,6.38
2023-05-11T18:34:24.814Z,5.80
2023-05-11T18:36:54.760Z,4.70
2023-05-11T18:39:24.474Z,5.47
2023-05-11T18:41:54.904Z,4.75
2023-05-11T18:44:24.413Z,4.70
2023-05-11T18:46:54.434Z,4.93
2023-05-11T18:49:25.194Z,5.03
2023-05-11T18:51:56.088Z,5.35
2023-05-11T18:54:25.326Z,5.78
2023-05-11T18:56:55.256Z,5.90
2023-05-11T18:59:24.792Z,5.95
2023-05-11T19:01:54.497Z,5.10
2023-05-11T19:04:25.521Z,5.95
2023-05-11T19:06:55.950Z,6.57
2023-05-11T19:09:25.543Z,5.07
2023-05-11T19:11:56.448Z,6.57
2023-05-11T19:14:25.912Z,6.03
2023-05-11T19:16:55.665Z,4.63
2023-05-11T19:19:26.405Z,5.28
2023-05-11T19:21:56.581Z,6.43
2023-05-11T19:24:26.216Z,5.40
2023-05-11T19:27:06.745Z,4.55
2023-05-11T19:29:37.314Z,5.15
2023-05-11T19:32:07.735Z,4.13
2023-05-11T19:34:38.563Z,5.78
2023-05-11T19:37:09.334Z,5.00
2023-05-11T19:39:38.765Z,5.25
2023-05-11T19:42:08.680Z,4.55
2023-05-11T19:44:43.601Z,4.75
2023-05-11T19:47:13.186Z,4.80
2023-05-11T19:49:43.996Z,4.80
2023-05-11T19:52:13.614Z,5.32
2023-05-11T19:54:43.071Z,6.07
2023-05-11T19:57:13.102Z,6.47
2023-05-11T19:59:44.422Z,5.68
2023-05-11T20:02:14.506Z,5.93
2023-05-11T20:04:46.743Z,6.20
2023-05-11T20:07:16.895Z,5.78
2023-05-11T20:09:46.144Z,6.18
2023-05-11T20:12:15.863Z,7.18
2023-05-11T20:14:45.159Z,8.07
2023-05-11T20:17:14.902Z,8.35
2023-05-11T20:19:45.635Z,7.40
2023-05-11T20:22:15.902Z,9.43
2023-05-11T20:24:45.161Z,8.23
2023-05-11T20:27:14.755Z,9.30
2023-05-11T20:29:44.276Z,7.65
2023-05-11T20:32:14.071Z,9.48
2023-05-11T20:34:44.798Z,8.88
2023-05-11T20:37:14.853Z,6.90
2023-05-11T20:39:45.613Z,7.78
2023-05-11T20:42:15.275Z,7.53
2023-05-11T20:44:44.557Z,7.28
2023-05-11T20:47:14.268Z,7.65
2023-05-11T20:49:44.967Z,8.48
2023-05-11T20:52:15.517Z,7.07
2023-05-11T20:54:44.915Z,7.88
2023-05-11T20:57:14.871Z,7.57
2023-05-11T21:02:17.197Z,7.75
2023-05-11T21:04:48.701Z,6.57
2023-05-11T21:07:18.818Z,7.85
2023-05-11T21:09:48.013Z,6.57
2023-05-11T21:12:17.615Z,7.05
2023-05-11T21:14:47.150Z,6.60
2023-05-11T21:17:17.390Z,6.28
2023-05-11T21:19:48.168Z,6.80
2023-05-11T21:22:17.800Z,6.53
2023-05-11T21:24:47.076Z,6.68
2023-05-11T21:27:17.969Z,7.30
2023-05-11T21:29:48.474Z,6.63
2023-05-11T21:32:18.675Z,6.05
2023-05-11T21:34:49.418Z,5.13
2023-05-11T21:37:21.316Z,6.10
2023-05-11T21:39:50.608Z,5.60
2023-05-11T21:42:20.292Z,6.05
2023-05-11T21:44:49.563Z,6.43
2023-05-11T21:47:19.225Z,6.68
2023-05-11T21:49:51.414Z,5.32
2023-05-11T21:52:21.940Z,6.88
2023-05-11T21:54:51.185Z,5.32
2023-05-11T21:57:22.292Z,5.93
2023-05-11T21:59:51.518Z,5.47
2023-05-11T22:02:21.303Z,6.15
2023-05-11T22:04:52.557Z,5.80
2023-05-11T22:07:22.302Z,5.80
2023-05-11T22:09:51.558Z,7.60
2023-05-11T22:12:21.531Z,6.00
2023-05-11T22:14:50.796Z,5.88
2023-05-11T22:17:20.904Z,7.45
2023-05-11T22:19:52.236Z,6.30
2023-05-11T22:22:21.845Z,6.40
2023-05-11T22:24:51.078Z,6.05
2023-05-11T22:27:20.702Z,5.50
2023-05-11T22:29:50.533Z,6.90
2023-05-11T22:32:22.027Z,6.00
2023-05-11T22:37:29.362Z,6.40
2023-05-11T22:39:58.744Z,7.63
2023-05-11T22:42:31.038Z,6.70
2023-05-11T22:45:00.321Z,6.40
2023-05-11T22:47:30.341Z,5.83
2023-05-11T22:50:01.078Z,6.13
2023-05-11T22:52:30.866Z,6.38
2023-05-11T22:55:01.306Z,7.60
2023-05-11T22:57:31.057Z,6.18
2023-05-11T23:00:00.370Z,6.38
2023-05-11T23:02:30.490Z,6.78
2023-05-11T23:05:02.406Z,5.63
2023-05-11T23:07:32.488Z,7.35
2023-05-11T23:10:01.890Z,7.75
2023-05-11T23:12:31.599Z,6.10
2023-05-11T23:15:00.844Z,7.13
2023-05-11T23:17:30.669Z,7.97
2023-05-11T23:20:02.034Z,8.00
2023-05-11T23:22:31.736Z,7.18
2023-05-11T23:25:01.487Z,6.28
2023-05-11T23:27:31.290Z,6.28
2023-05-11T23:30:00.586Z,7.07
2023-05-11T23:32:30.664Z,5.43
2023-05-11T23:35:01.590Z,6.13
2023-05-11T23:37:31.717Z,6.50
2023-05-11T23:40:01.107Z,5.38
2023-05-11T23:42:31.078Z,6.23
2023-05-11T23:45:04.863Z,6.07
2023-05-11T23:47:35.228Z,6.28
2023-05-11T23:50:07.663Z,6.05
2023-05-11T23:52:37.593Z,6.15
2023-05-11T23:55:08.062Z,6.28
2023-05-11T23:57:37.645Z,6.05
